createdAt,value
2023-03-22T00:02:33.308Z,9.30
2023-03-22T00:07:41.065Z,10.55
2023-03-22T00:10:13.646Z,9.23
2023-03-22T00:12:45.816Z,8.63
2023-03-22T00:15:18.328Z,9.55
2023-03-22T00:17:50.504Z,9.75
2023-03-22T00:20:23.752Z,9.02
2023-03-22T00:22:56.221Z,8.88
2023-03-22T00:25:28.488Z,9.00
2023-03-22T00:28:00.879Z,9.50
2023-03-22T00:30:32.852Z,8.63
2023-03-22T00:33:05.828Z,8.75
2023-03-22T00:35:37.863Z,8.88
2023-03-22T00:38:14.422Z,8.82
2023-03-22T00:40:47.463Z,9.52
2023-03-22T00:43:19.624Z,8.93
2023-03-22T00:45:52.031Z,8.60
2023-03-22T00:48:24.764Z,10.05
2023-03-22T00:50:56.783Z,8.82
2023-03-22T00:53:33.002Z,9.10
2023-03-22T00:56:06.183Z,8.32
2023-03-22T00:58:47.521Z,8.85
2023-03-22T01:01:20.008Z,8.73
2023-03-22T01:03:53.040Z,8.75
2023-03-22T01:06:26.066Z,8.00
2023-03-22T01:08:58.099Z,8.90
2023-03-22T01:11:30.126Z,8.90
2023-03-22T01:14:02.113Z,8.55
2023-03-22T01:16:34.578Z,9.00
2023-03-22T01:19:07.423Z,8.73
2023-03-22T01:21:39.799Z,9.80
2023-03-22T01:24:11.879Z,8.10
2023-03-22T01:26:45.009Z,8.77
2023-03-22T01:29:18.016Z,9.73
2023-03-22T01:31:50.641Z,7.93
2023-03-22T01:34:22.904Z,8.82
2023-03-22T01:36:55.705Z,8.13
2023-03-22T01:39:27.860Z,7.85
2023-03-22T01:42:04.296Z,8.38
2023-03-22T01:44:38.546Z,7.95
2023-03-22T01:47:11.808Z,8.82
2023-03-22T01:49:44.183Z,7.28
2023-03-22T01:52:16.985Z,7.30
2023-03-22T01:55:09.616Z,7.45
2023-03-22T01:57:54.150Z,7.43
2023-03-22T02:00:37.151Z,8.38
2023-03-22T02:03:49.270Z,8.13
2023-03-22T02:06:22.357Z,7.57
2023-03-22T02:09:00.424Z,7.15
2023-03-22T02:11:41.717Z,7.03
2023-03-22T02:14:47.848Z,7.63
2023-03-22T02:17:44.688Z,8.13
2023-03-22T02:20:32.184Z,6.75
2023-03-22T02:23:13.638Z,6.90
2023-03-22T02:26:04.074Z,7.28
2023-03-22T02:28:51.471Z,7.47
2023-03-22T02:31:50.345Z,7.97
2023-03-22T02:34:23.766Z,7.15
2023-03-22T02:37:04.839Z,7.70
2023-03-22T02:40:05.699Z,6.97
2023-03-22T02:43:16.498Z,7.22
2023-03-22T02:45:57.117Z,6.95
2023-03-22T02:48:44.315Z,6.30
2023-03-22T02:51:29.354Z,8.00
2023-03-22T02:54:11.253Z,7.85
2023-03-22T02:57:10.821Z,7.03
2023-03-22T02:59:46.072Z,7.30
2023-03-22T03:02:19.753Z,7.03
2023-03-22T03:07:28.949Z,7.13
2023-03-22T03:10:02.184Z,6.93
2023-03-22T03:12:34.324Z,7.13
2023-03-22T03:15:19.420Z,7.25
2023-03-22T03:17:51.461Z,6.25
2023-03-22T03:20:48.757Z,7.00
2023-03-22T03:24:07.128Z,7.00
2023-03-22T03:27:02.233Z,6.25
2023-03-22T03:29:42.962Z,6.53
2023-03-22T03:32:38.271Z,7.05
2023-03-22T03:35:26.698Z,6.50
2023-03-22T03:38:10.039Z,6.93
2023-03-22T03:40:50.724Z,6.88
2023-03-22T03:43:25.546Z,6.07
2023-03-22T03:45:57.907Z,7.07
2023-03-22T03:48:32.608Z,6.88
2023-03-22T03:51:06.305Z,6.63
2023-03-22T03:53:38.350Z,6.45
2023-03-22T03:56:10.948Z,6.53
2023-03-22T03:58:47.854Z,6.20
2023-03-22T04:01:20.800Z,6.28
2023-03-22T04:04:00.563Z,5.78
2023-03-22T04:09:21.724Z,6.18
2023-03-22T04:11:59.024Z,5.38
2023-03-22T04:14:31.219Z,5.40
2023-03-22T04:17:09.888Z,5.88
2023-03-22T04:19:44.736Z,6.15
2023-03-22T04:22:18.516Z,5.50
2023-03-22T04:24:50.846Z,5.53
2023-03-22T05:25:54.463Z,4.72
2023-03-22T05:28:28.673Z,6.28
2023-03-22T05:31:23.126Z,5.22
2023-03-22T05:34:03.465Z,6.00
2023-03-22T05:36:38.509Z,5.68
2023-03-22T05:39:36.794Z,5.32
2023-03-22T05:42:09.158Z,5.40
2023-03-22T05:44:42.456Z,5.63
2023-03-22T05:47:18.187Z,5.25
2023-03-22T05:50:19.001Z,5.15
2023-03-22T05:52:52.196Z,5.45
2023-03-22T05:55:36.740Z,5.40
2023-03-22T05:58:11.187Z,5.18
2023-03-22T06:00:51.889Z,5.53
2023-03-22T06:03:48.735Z,5.10
2023-03-22T06:06:30.339Z,6.13
2023-03-22T06:09:18.181Z,6.38
2023-03-22T06:11:55.400Z,6.35
2023-03-22T06:14:28.699Z,5.80
2023-03-22T06:17:20.241Z,6.53
2023-03-22T06:19:54.992Z,7.90
2023-03-22T06:22:30.704Z,7.70
2023-03-22T06:25:04.247Z,9.35
2023-03-22T06:27:49.743Z,7.22
2023-03-22T06:30:23.149Z,5.55
2023-03-22T06:33:18.953Z,5.47
2023-03-22T06:36:01.006Z,5.30
2023-03-22T06:38:43.734Z,5.38
2023-03-22T06:41:15.863Z,4.93
2023-03-22T06:43:48.206Z,3.00
2023-03-22T06:46:53.001Z,2.95
2023-03-22T06:49:47.458Z,3.75
2023-03-22T06:52:24.907Z,4.22
2023-03-22T06:54:57.560Z,3.70
2023-03-22T06:57:30.408Z,3.47
2023-03-22T07:00:05.301Z,3.78
2023-03-22T07:02:37.740Z,3.60
2023-03-22T07:05:24.727Z,3.28
2023-03-22T07:07:57.938Z,3.73
2023-03-22T07:10:31.690Z,4.70
2023-03-22T07:13:03.882Z,4.90
2023-03-22T07:15:36.668Z,4.43
2023-03-22T07:18:14.053Z,4.32
2023-03-22T07:20:46.641Z,5.95
2023-03-22T07:23:20.304Z,4.10
2023-03-22T07:25:56.625Z,2.20
2023-03-22T07:28:33.743Z,1.90
2023-03-22T07:31:12.614Z,2.30
2023-03-22T07:33:54.019Z,1.88
2023-03-22T07:36:28.775Z,2.00
2023-03-22T07:39:02.053Z,2.45
2023-03-22T07:41:38.793Z,2.35
2023-03-22T07:44:33.768Z,1.98
2023-03-22T07:47:37.723Z,2.17
2023-03-22T07:50:32.771Z,3.10
2023-03-22T07:53:08.413Z,2.65
2023-03-22T07:55:42.369Z,3.03
2023-03-22T07:58:15.075Z,2.72
2023-03-22T08:00:49.820Z,3.08
2023-03-22T08:03:40.806Z,4.53
2023-03-22T08:06:33.259Z,4.03
2023-03-22T08:09:08.963Z,3.30
2023-03-22T08:11:41.352Z,3.40
2023-03-22T08:14:14.225Z,4.32
2023-03-22T08:16:46.563Z,4.93
2023-03-22T08:19:19.465Z,4.53
2023-03-22T08:21:52.446Z,4.18
2023-03-22T08:24:50.630Z,3.80
2023-03-22T08:27:31.878Z,4.38
2023-03-22T08:30:05.811Z,3.92
2023-03-22T08:32:37.972Z,4.10
2023-03-22T08:35:11.257Z,4.03
2023-03-22T08:37:43.370Z,4.15
2023-03-22T08:40:16.009Z,5.10
2023-03-22T08:42:56.493Z,5.68
2023-03-22T08:45:29.048Z,6.43
2023-03-22T08:48:08.607Z,6.28
2023-03-22T08:50:59.065Z,6.93
2023-03-22T08:53:43.583Z,7.03
2023-03-22T08:56:44.794Z,8.25
2023-03-22T08:59:29.322Z,7.03
2023-03-22T09:02:40.209Z,7.00
2023-03-22T09:05:13.742Z,6.07
2023-03-22T09:07:47.310Z,5.85
2023-03-22T09:10:30.961Z,4.10
2023-03-22T09:13:03.221Z,6.68
2023-03-22T09:15:35.750Z,6.15
2023-03-22T09:18:16.615Z,5.35
2023-03-22T09:20:49.250Z,5.33
2023-03-22T09:23:24.476Z,6.47
2023-03-22T09:25:57.159Z,5.00
2023-03-22T09:28:31.523Z,5.93
2023-03-22T09:31:09.836Z,5.47
2023-03-22T09:33:43.391Z,5.40
2023-03-22T09:36:16.116Z,5.70
2023-03-22T09:38:50.602Z,5.38
2023-03-22T09:41:36.435Z,5.53
2023-03-22T09:44:15.745Z,5.28
2023-03-22T09:46:52.221Z,5.57
2023-03-22T09:49:29.425Z,5.60
2023-03-22T09:52:01.761Z,5.88
2023-03-22T09:54:40.465Z,5.97
2023-03-22T09:57:32.802Z,6.05
2023-03-22T10:00:21.186Z,5.50
2023-03-22T10:03:14.679Z,5.85
2023-03-22T10:05:57.749Z,4.55
2023-03-22T10:08:50.542Z,5.97
2023-03-22T10:11:52.410Z,4.43
2023-03-22T10:14:34.372Z,4.63
2023-03-22T10:17:14.638Z,4.80
2023-03-22T10:20:37.087Z,4.53
2023-03-22T10:23:24.040Z,4.38
2023-03-22T10:25:57.545Z,4.70
2023-03-22T10:31:23.109Z,4.05
2023-03-22T10:33:59.744Z,4.20
2023-03-22T10:36:35.944Z,4.43
2023-03-22T10:39:31.892Z,4.55
2023-03-22T10:42:08.792Z,3.83
2023-03-22T10:44:54.751Z,4.13
2023-03-22T10:47:37.540Z,4.03
2023-03-22T10:50:32.034Z,3.80
2023-03-22T10:53:06.696Z,3.63
2023-03-22T10:55:43.722Z,4.40
2023-03-22T10:58:17.960Z,2.90
2023-03-22T11:00:57.001Z,4.13
2023-03-22T11:03:44.052Z,3.63
2023-03-22T11:06:25.277Z,2.72
2023-03-22T11:09:01.392Z,2.35
2023-03-22T11:11:45.314Z,2.65
2023-03-22T11:14:37.268Z,2.83
2023-03-22T11:17:14.962Z,2.42
2023-03-22T11:20:10.283Z,2.47
2023-03-22T11:22:48.257Z,1.80
2023-03-22T11:25:32.570Z,2.15
2023-03-22T11:28:05.009Z,2.25
2023-03-22T11:30:39.098Z,1.65
2023-03-22T11:33:17.817Z,1.67
2023-03-22T11:35:59.246Z,2.10
2023-03-22T11:38:44.876Z,1.60
2023-03-22T11:41:25.698Z,1.85
2023-03-22T11:44:03.025Z,1.70
2023-03-22T11:46:36.533Z,2.17
2023-03-22T11:49:14.849Z,1.95
2023-03-22T11:51:47.309Z,1.45
2023-03-22T11:54:36.275Z,1.95
2023-03-22T11:57:17.157Z,1.90
2023-03-22T12:00:03.566Z,1.50
2023-03-22T12:02:46.251Z,1.55
2023-03-22T12:05:43.945Z,1.90
2023-03-22T12:08:39.282Z,1.65
2023-03-22T12:11:35.185Z,1.80
2023-03-22T12:14:43.756Z,1.50
2023-03-22T12:17:24.410Z,1.52
2023-03-22T12:20:21.865Z,1.77
2023-03-22T12:22:55.347Z,1.52
2023-03-22T12:25:34.645Z,1.70
2023-03-22T12:28:11.932Z,1.80
2023-03-22T12:30:48.753Z,1.25
2023-03-22T12:33:24.952Z,1.70
2023-03-22T12:36:04.381Z,1.38
2023-03-22T12:38:43.135Z,1.63
2023-03-22T12:41:37.156Z,1.65
2023-03-22T12:47:48.498Z,2.10
2023-03-22T12:50:25.722Z,2.05
2023-03-22T12:52:58.588Z,2.00
2023-03-22T12:55:34.401Z,2.00
2023-03-22T12:58:08.564Z,1.60
2023-03-22T13:00:45.391Z,2.00
2023-03-22T13:03:17.699Z,1.75
2023-03-22T13:06:01.485Z,1.80
2023-03-22T13:09:16.944Z,1.85
2023-03-22T13:12:15.474Z,2.38
2023-03-22T13:14:53.271Z,1.80
2023-03-22T13:17:25.818Z,1.55
2023-03-22T13:20:02.343Z,1.63
2023-03-22T13:22:37.826Z,1.70
2023-03-22T13:25:29.254Z,1.85
2023-03-22T13:28:23.262Z,1.80
2023-03-22T13:30:58.045Z,2.30
2023-03-22T13:33:34.780Z,1.50
2023-03-22T13:36:25.256Z,2.00
2023-03-22T13:39:00.140Z,1.60
2023-03-22T13:41:36.437Z,1.70
2023-03-22T13:44:36.218Z,1.80
2023-03-22T13:47:29.838Z,1.40
2023-03-22T13:50:17.403Z,1.63
2023-03-22T13:53:07.401Z,1.60
2023-03-22T13:55:57.523Z,1.50
2023-03-22T13:58:48.524Z,1.92
2023-03-22T14:01:28.519Z,1.30
2023-03-22T14:04:05.321Z,1.67
2023-03-22T14:06:47.954Z,2.00
2023-03-22T14:09:45.405Z,2.30
2023-03-22T14:12:23.258Z,1.60
2023-03-22T14:15:01.007Z,1.70
2023-03-22T14:17:45.284Z,2.15
2023-03-22T14:20:23.181Z,1.92
2023-03-22T14:54:16.749Z,1.85
2023-03-22T14:56:49.891Z,1.60
2023-03-22T15:02:01.138Z,1.70
2023-03-22T15:04:36.583Z,1.50
2023-03-22T15:07:10.079Z,1.70
2023-03-22T15:09:42.248Z,1.65
2023-03-22T15:12:17.371Z,1.20
2023-03-22T15:14:49.938Z,1.30
2023-03-22T15:17:22.898Z,1.43
2023-03-22T15:19:55.776Z,1.58
2023-03-22T15:22:28.025Z,1.30
2023-03-22T15:25:03.318Z,1.25
2023-03-22T15:27:36.811Z,1.02
2023-03-22T15:30:11.773Z,1.30
2023-03-22T15:32:44.471Z,1.85
2023-03-22T15:35:18.415Z,1.33
2023-03-22T15:37:54.607Z,1.50
2023-03-22T15:40:41.816Z,1.70
2023-03-22T15:43:18.628Z,1.48
2023-03-22T15:46:09.271Z,1.70
2023-03-22T15:48:43.532Z,1.52
2023-03-22T15:51:20.723Z,1.52
2023-03-22T15:53:55.211Z,1.48
2023-03-22T15:56:35.143Z,1.65
2023-03-22T15:59:30.943Z,1.60
2023-03-22T16:02:17.517Z,1.40
2023-03-22T16:04:52.372Z,1.45
2023-03-22T16:07:27.789Z,1.80
2023-03-22T16:09:59.979Z,1.52
2023-03-22T16:12:32.260Z,1.60
2023-03-22T16:15:04.649Z,1.63
2023-03-22T16:17:36.889Z,1.67
2023-03-22T16:20:10.325Z,1.83
2023-03-22T16:25:21.656Z,2.28
2023-03-22T16:27:54.528Z,1.83
2023-03-22T16:30:27.031Z,1.85
2023-03-22T16:32:59.877Z,2.10
2023-03-22T16:35:34.922Z,1.90
2023-03-22T16:38:07.457Z,1.77
2023-03-22T16:40:49.548Z,2.50
2023-03-22T16:43:21.657Z,2.38
2023-03-22T16:45:54.037Z,2.08
2023-03-22T16:48:27.822Z,2.58
2023-03-22T16:51:00.802Z,2.20
2023-03-22T16:53:40.351Z,1.80
2023-03-22T16:56:15.670Z,2.03
2023-03-22T16:58:48.454Z,1.90
2023-03-22T17:01:21.754Z,2.00
2023-03-22T17:03:54.019Z,2.05
2023-03-22T17:06:26.947Z,2.13
2023-03-22T17:08:59.488Z,1.52
2023-03-22T17:11:31.914Z,2.00
2023-03-22T17:14:04.918Z,1.85
2023-03-22T17:16:37.082Z,2.13
2023-03-22T17:19:09.269Z,2.10
2023-03-22T17:21:41.903Z,2.30
2023-03-22T17:24:14.307Z,1.95
2023-03-22T17:26:47.337Z,1.88
2023-03-22T17:29:19.642Z,1.77
2023-03-22T17:31:57.893Z,1.45
2023-03-22T17:34:36.780Z,1.73
2023-03-22T17:37:09.631Z,2.00
2023-03-22T17:40:20.334Z,1.90
2023-03-22T17:42:35.495Z,2.60
2023-03-22T17:45:12.849Z,1.92
2023-03-22T17:47:48.409Z,2.00
2023-03-22T17:50:22.451Z,2.00
2023-03-22T17:52:58.187Z,2.80
2023-03-22T17:56:08.653Z,2.28
2023-03-22T17:58:40.788Z,2.17
2023-03-22T18:01:18.759Z,2.97
2023-03-22T18:03:51.472Z,3.03
2023-03-22T18:06:23.916Z,2.80
2023-03-22T18:08:57.234Z,2.55
2023-03-22T18:11:29.704Z,2.92
2023-03-22T18:14:13.765Z,3.20
2023-03-22T18:16:54.805Z,2.97
2023-03-22T18:19:27.686Z,4.70
2023-03-22T18:22:00.119Z,4.50
2023-03-22T18:24:32.282Z,5.00
2023-03-22T18:27:11.279Z,3.60
2023-03-22T18:29:44.286Z,3.90
2023-03-22T18:32:18.466Z,3.55
2023-03-22T18:34:52.161Z,3.10
2023-03-22T18:37:25.879Z,3.30
2023-03-22T18:42:48.549Z,3.05
2023-03-22T18:47:54.627Z,3.58
2023-03-22T18:50:27.728Z,3.60
2023-03-22T18:55:47.661Z,4.72
2023-03-22T18:58:23.596Z,4.75
2023-03-22T19:00:56.325Z,5.13
2023-03-22T19:03:29.268Z,5.67
2023-03-22T19:06:12.086Z,6.25
2023-03-22T19:08:46.562Z,6.28
2023-03-22T19:11:19.065Z,9.27
2023-03-22T19:14:35.979Z,8.15
2023-03-22T19:16:46.761Z,9.52
2023-03-22T19:19:20.049Z,8.68
2023-03-22T19:21:52.510Z,7.95
2023-03-22T19:24:25.581Z,8.02
2023-03-22T19:27:16.202Z,8.90
2023-03-22T19:29:51.570Z,8.35
2023-03-22T19:32:23.918Z,8.80
2023-03-22T19:34:57.159Z,8.55
2023-03-22T19:37:29.603Z,8.07
2023-03-22T19:42:37.403Z,8.38
2023-03-22T19:45:10.617Z,8.90
2023-03-22T19:47:58.250Z,9.75
2023-03-22T19:50:38.918Z,11.43
2023-03-22T19:53:51.717Z,9.85
2023-03-22T19:56:04.864Z,9.60
2023-03-22T19:58:38.012Z,10.68
2023-03-22T20:01:11.519Z,10.00
2023-03-22T20:03:44.786Z,9.93
2023-03-22T20:06:16.997Z,10.43
2023-03-22T20:08:49.201Z,9.13
2023-03-22T20:11:32.204Z,9.10
2023-03-22T20:14:10.973Z,8.82
2023-03-22T20:16:43.472Z,7.38
2023-03-22T20:19:17.497Z,7.07
2023-03-22T20:21:50.033Z,6.80
2023-03-22T20:24:22.993Z,6.65
2023-03-22T20:26:55.972Z,6.55
2023-03-22T20:29:28.137Z,7.07
2023-03-22T20:32:01.025Z,7.03
2023-03-22T20:34:33.254Z,6.57
2023-03-22T20:37:05.845Z,6.45
2023-03-22T20:39:38.293Z,6.63
2023-03-22T20:42:10.863Z,6.10
2023-03-22T20:44:43.063Z,6.20
2023-03-22T20:47:15.491Z,6.03
2023-03-22T20:49:47.845Z,6.03
2023-03-22T20:52:20.114Z,5.70
2023-03-22T20:54:52.564Z,7.18
2023-03-22T20:57:24.744Z,7.80
2023-03-22T20:59:57.122Z,7.32
2023-03-22T21:02:29.498Z,6.65
2023-03-22T21:05:02.378Z,6.40
2023-03-22T21:07:34.661Z,6.65
2023-03-22T21:10:08.537Z,5.50
2023-03-22T21:12:41.832Z,5.80
2023-03-22T21:15:15.738Z,5.18
2023-03-22T21:17:49.412Z,5.15
2023-03-22T21:20:32.366Z,5.15
2023-03-22T21:23:05.593Z,4.70
2023-03-22T21:25:37.828Z,5.28
2023-03-22T21:28:10.198Z,4.90
2023-03-22T21:30:42.655Z,4.75
2023-03-22T21:33:15.059Z,4.93
2023-03-22T21:35:49.599Z,4.35
2023-03-22T21:38:23.014Z,4.30
2023-03-22T21:40:57.340Z,4.50
2023-03-22T21:43:32.220Z,4.25
2023-03-22T21:46:10.609Z,4.90
2023-03-22T21:48:44.501Z,4.53
2023-03-22T21:51:17.157Z,4.75
2023-03-22T21:53:49.426Z,4.72
2023-03-22T21:56:21.637Z,4.28
2023-03-22T21:58:54.493Z,4.60
2023-03-22T22:01:27.438Z,4.45
2023-03-22T22:03:59.673Z,4.00
2023-03-22T22:06:31.985Z,4.45
2023-03-22T22:09:06.218Z,4.32
2023-03-22T22:11:39.547Z,4.22
2023-03-22T22:14:12.031Z,4.78
2023-03-22T22:16:44.338Z,4.00
2023-03-22T22:19:16.504Z,4.65
2023-03-22T22:21:48.671Z,4.30
2023-03-22T22:24:20.983Z,4.72
2023-03-22T22:26:53.432Z,4.20
2023-03-22T22:29:26.093Z,3.80
2023-03-22T22:31:58.707Z,3.70
2023-03-22T22:34:32.500Z,3.60
2023-03-22T22:37:04.683Z,3.80
2023-03-22T22:39:37.177Z,3.15
2023-03-22T22:42:09.355Z,3.88
2023-03-22T22:44:41.693Z,3.42
2023-03-22T22:47:13.778Z,3.47
2023-03-22T22:49:47.439Z,3.38
2023-03-22T22:52:19.510Z,2.80
2023-03-22T22:54:51.789Z,2.75
2023-03-22T22:57:23.911Z,2.92
2023-03-22T22:59:56.532Z,3.45
2023-03-22T23:02:28.671Z,3.28
2023-03-22T23:05:01.148Z,3.40
2023-03-22T23:07:33.677Z,2.95
2023-03-22T23:10:08.462Z,3.95
2023-03-22T23:12:40.969Z,3.92
2023-03-22T23:15:26.664Z,3.75
2023-03-22T23:18:09.970Z,4.22
2023-03-22T23:20:43.063Z,3.90
2023-03-22T23:23:17.729Z,3.17
2023-03-22T23:25:53.722Z,3.80
2023-03-22T23:28:33.996Z,3.58
2023-03-22T23:31:15.756Z,4.15
2023-03-22T23:41:55.859Z,4.07
2023-03-22T23:44:28.006Z,4.07
2023-03-22T23:47:00.240Z,4.22
2023-03-22T23:49:33.252Z,3.63
2023-03-22T23:52:06.055Z,3.63
2023-03-22T23:54:38.467Z,3.50
2023-03-22T23:57:11.257Z,4.13
2023-03-22T23:59:44.241Z,3.85
